sensor_id;sensor_type;location;lat;lon;timestamp;temperature;humidity
8485;DHT22;34555;49.34829940;8.43506100;2022-08-19T00:01:21;24.30;84.40
8485;DHT22;34555;49.34829940;8.43506100;2022-08-19T00:03:47;24.30;84.20
8485;DHT22;34555;49.34829940;8.43506100;2022-08-19T00:06:14;24.30;84.20
8485;DHT22;34555;49.34829940;8.43506100;2022-08-19T00:08:39;24.30;84.10
8485;DHT22;34555;49.34829940;8.43506100;2022-08-19T00:11:05;24.30;84.30
8485;DHT22;34555;49.34829940;8.43506100;2022-08-19T00:13:30;24.30;84.50
8485;DHT22;34555;49.34829940;8.43506100;2022-08-19T00:15:56;24.20;84.50
8485;DHT22;34555;49.34829940;8.43506100;2022-08-19T00:18:23;24.30;84.60
8485;DHT22;34555;49.34829940;8.43506100;2022-08-19T00:20:49;24.20;84.60
8485;DHT22;34555;49.34829940;8.43506100;2022-08-19T00:23:14;24.20;84.70
8485;DHT22;34555;49.34829940;8.43506100;2022-08-19T00:25:41;24.30;84.70
8485;DHT22;34555;49.34829940;8.43506100;2022-08-19T00:28:06;24.30;84.50
8485;DHT22;34555;49.34829940;8.43506100;2022-08-19T00:30:32;24.30;84.40
8485;DHT22;34555;49.34829940;8.43506100;2022-08-19T00:32:58;24.30;84.20
8485;DHT22;34555;49.34829940;8.43506100;2022-08-19T00:35:23;24.30;84.10
8485;DHT22;34555;49.34829940;8.43506100;2022-08-19T00:37:49;24.30;84.30
8485;DHT22;34555;49.34829940;8.43506100;2022-08-19T00:40:16;24.20;84.60
8485;DHT22;34555;49.34829940;8.43506100;2022-08-19T00:42:42;24.20;84.80
8485;DHT22;34555;49.34829940;8.43506100;2022-08-19T00:45:15;24.20;85.00
8485;DHT22;34555;49.34829940;8.43506100;2022-08-19T00:47:43;24.10;85.10
8485;DHT22;34555;49.34829940;8.43506100;2022-08-19T00:50:10;24.20;84.90
8485;DHT22;34555;49.34829940;8.43506100;2022-08-19T00:52:41;24.30;84.70
8485;DHT22;34555;49.34829940;8.43506100;2022-08-19T00:55:12;24.20;84.90
8485;DHT22;34555;49.34829940;8.43506100;2022-08-19T00:57:41;24.20;84.80
8485;DHT22;34555;49.34829940;8.43506100;2022-08-19T01:00:11;24.30;84.60
8485;DHT22;34555;49.34829940;8.43506100;2022-08-19T01:02:39;24.30;84.30
8485;DHT22;34555;49.34829940;8.43506100;2022-08-19T01:05:09;24.30;84.10
8485;DHT22;34555;49.34829940;8.43506100;2022-08-19T01:07:39;24.30;84.20
8485;DHT22;34555;49.34829940;8.43506100;2022-08-19T01:10:07;24.30;84.10
8485;DHT22;34555;49.34829940;8.43506100;2022-08-19T01:12:33;24.30;83.90
8485;DHT22;34555;49.34829940;8.43506100;2022-08-19T01:15:00;24.30;83.90
8485;DHT22;34555;49.34829940;8.43506100;2022-08-19T01:17:26;24.30;84.00
8485;DHT22;34555;49.34829940;8.43506100;2022-08-19T01:19:52;24.30;84.10
8485;DHT22;34555;49.34829940;8.43506100;2022-08-19T01:24:50;24.30;84.00
8485;DHT22;34555;49.34829940;8.43506100;2022-08-19T01:27:17;24.30;84.10
8485;DHT22;34555;49.34829940;8.43506100;2022-08-19T01:29:44;24.30;84.20
8485;DHT22;34555;49.34829940;8.43506100;2022-08-19T01:32:13;24.20;84.30
8485;DHT22;34555;49.34829940;8.43506100;2022-08-19T01:34:39;24.20;84.30
8485;DHT22;34555;49.34829940;8.43506100;2022-08-19T01:37:08;24.20;84.40
8485;DHT22;34555;49.34829940;8.43506100;2022-08-19T01:39:36;24.10;84.70
8485;DHT22;34555;49.34829940;8.43506100;2022-08-19T01:42:02;24.00;84.90
8485;DHT22;34555;49.34829940;8.43506100;2022-08-19T01:44:29;24.10;84.90
8485;DHT22;34555;49.34829940;8.43506100;2022-08-19T01:46:55;24.10;84.60
8485;DHT22;34555;49.34829940;8.43506100;2022-08-19T01:49:23;24.20;84.60
8485;DHT22;34555;49.34829940;8.43506100;2022-08-19T01:51:50;24.10;84.70
8485;DHT22;34555;49.34829940;8.43506100;2022-08-19T01:54:18;24.10;84.60
8485;DHT22;34555;49.34829940;8.43506100;2022-08-19T01:56:44;24.20;84.60
8485;DHT22;34555;49.34829940;8.43506100;2022-08-19T01:59:13;24.20;84.40
8485;DHT22;34555;49.34829940;8.43506100;2022-08-19T02:01:40;24.30;84.10
8485;DHT22;34555;49.34829940;8.43506100;2022-08-19T02:04:06;24.30;84.10
8485;DHT22;34555;49.34829940;8.43506100;2022-08-19T02:06:32;24.30;84.30
8485;DHT22;34555;49.34829940;8.43506100;2022-08-19T02:08:58;24.20;84.30
8485;DHT22;34555;49.34829940;8.43506100;2022-08-19T02:11:27;24.20;84.40
8485;DHT22;34555;49.34829940;8.43506100;2022-08-19T02:13:54;24.30;84.30
8485;DHT22;34555;49.34829940;8.43506100;2022-08-19T02:16:20;24.30;84.50
8485;DHT22;34555;49.34829940;8.43506100;2022-08-19T02:18:46;24.30;84.50
8485;DHT22;34555;49.34829940;8.43506100;2022-08-19T02:21:14;24.20;84.60
8485;DHT22;34555;49.34829940;8.43506100;2022-08-19T02:23:41;24.20;84.80
8485;DHT22;34555;49.34829940;8.43506100;2022-08-19T02:26:07;24.20;84.80
8485;DHT22;34555;49.34829940;8.43506100;2022-08-19T02:28:33;24.10;85.00
8485;DHT22;34555;49.34829940;8.43506100;2022-08-19T02:30:59;24.10;85.20
8485;DHT22;34555;49.34829940;8.43506100;2022-08-19T02:33:26;24.10;85.00
8485;DHT22;34555;49.34829940;8.43506100;2022-08-19T02:35:51;24.10;85.00
8485;DHT22;34555;49.34829940;8.43506100;2022-08-19T02:38:17;24.20;85.00
8485;DHT22;34555;49.34829940;8.43506100;2022-08-19T02:40:57;24.20;84.90
8485;DHT22;34555;49.34829940;8.43506100;2022-08-19T02:43:24;24.20;84.70
8485;DHT22;34555;49.34829940;8.43506100;2022-08-19T02:45:50;24.20;84.70
8485;DHT22;34555;49.34829940;8.43506100;2022-08-19T02:48:17;24.20;84.80
8485;DHT22;34555;49.34829940;8.43506100;2022-08-19T02:50:44;24.20;84.90
8485;DHT22;34555;49.34829940;8.43506100;2022-08-19T02:53:10;24.20;85.00
8485;DHT22;34555;49.34829940;8.43506100;2022-08-19T02:55:42;24.20;84.80
8485;DHT22;34555;49.34829940;8.43506100;2022-08-19T02:58:08;24.30;84.70
8485;DHT22;34555;49.34829940;8.43506100;2022-08-19T03:00:34;24.20;84.60
8485;DHT22;34555;49.34829940;8.43506100;2022-08-19T03:02:59;24.20;84.80
8485;DHT22;34555;49.34829940;8.43506100;2022-08-19T03:05:25;24.10;85.00
8485;DHT22;34555;49.34829940;8.43506100;2022-08-19T03:07:52;24.10;85.00
8485;DHT22;34555;49.34829940;8.43506100;2022-08-19T03:10:17;24.10;85.10
8485;DHT22;34555;49.34829940;8.43506100;2022-08-19T03:12:43;24.10;85.10
8485;DHT22;34555;49.34829940;8.43506100;2022-08-19T03:15:10;24.10;85.00
8485;DHT22;34555;49.34829940;8.43506100;2022-08-19T03:17:36;24.20;84.90
8485;DHT22;34555;49.34829940;8.43506100;2022-08-19T03:20:02;24.20;84.80
8485;DHT22;34555;49.34829940;8.43506100;2022-08-19T03:22:27;24.20;84.80
8485;DHT22;34555;49.34829940;8.43506100;2022-08-19T03:24:53;24.20;84.60
8485;DHT22;34555;49.34829940;8.43506100;2022-08-19T03:27:19;24.30;84.60
8485;DHT22;34555;49.34829940;8.43506100;2022-08-19T03:29:45;24.20;84.70
8485;DHT22;34555;49.34829940;8.43506100;2022-08-19T03:32:10;24.10;84.70
8485;DHT22;34555;49.34829940;8.43506100;2022-08-19T03:34:37;24.10;84.90
8485;DHT22;34555;49.34829940;8.43506100;2022-08-19T03:37:09;24.10;85.20
8485;DHT22;34555;49.34829940;8.43506100;2022-08-19T03:39:36;24.10;85.10
8485;DHT22;34555;49.34829940;8.43506100;2022-08-19T03:42:02;24.00;85.30
8485;DHT22;34555;49.34829940;8.43506100;2022-08-19T03:44:29;23.90;85.70
8485;DHT22;34555;49.34829940;8.43506100;2022-08-19T03:46:57;23.90;85.80
8485;DHT22;34555;49.34829940;8.43506100;2022-08-19T03:49:26;23.90;85.80
8485;DHT22;34555;49.34829940;8.43506100;2022-08-19T03:51:53;23.90;85.70
8485;DHT22;34555;49.34829940;8.43506100;2022-08-19T03:54:20;24.00;85.60
8485;DHT22;34555;49.34829940;8.43506100;2022-08-19T03:56:49;24.00;85.50
8485;DHT22;34555;49.34829940;8.43506100;2022-08-19T03:59:24;23.90;85.50
8485;DHT22;34555;49.34829940;8.43506100;2022-08-19T04:01:55;23.90;85.60
8485;DHT22;34555;49.34829940;8.43506100;2022-08-19T04:04:22;23.90;85.70
8485;DHT22;34555;49.34829940;8.43506100;2022-08-19T04:06:48;23.90;85.80
8485;DHT22;34555;49.34829940;8.43506100;2022-08-19T04:09:14;23.80;86.00
8485;DHT22;34555;49.34829940;8.43506100;2022-08-19T04:11:46;23.90;85.90
8485;DHT22;34555;49.34829940;8.43506100;2022-08-19T04:14:17;23.90;85.70
8485;DHT22;34555;49.34829940;8.43506100;2022-08-19T04:16:44;23.90;85.80
8485;DHT22;34555;49.34829940;8.43506100;2022-08-19T04:19:11;23.90;85.50
8485;DHT22;34555;49.34829940;8.43506100;2022-08-19T04:21:36;24.00;85.40
8485;DHT22;34555;49.34829940;8.43506100;2022-08-19T04:24:03;24.00;85.20
8485;DHT22;34555;49.34829940;8.43506100;2022-08-19T04:26:32;24.00;85.30
8485;DHT22;34555;49.34829940;8.43506100;2022-08-19T04:28:59;24.00;85.20
8485;DHT22;34555;49.34829940;8.43506100;2022-08-19T04:31:28;24.00;85.00
8485;DHT22;34555;49.34829940;8.43506100;2022-08-19T04:33:58;23.90;85.00
8485;DHT22;34555;49.34829940;8.43506100;2022-08-19T04:36:28;23.90;84.90
8485;DHT22;34555;49.34829940;8.43506100;2022-08-19T04:38:55;23.90;84.90
8485;DHT22;34555;49.34829940;8.43506100;2022-08-19T04:41:21;23.90;85.00
8485;DHT22;34555;49.34829940;8.43506100;2022-08-19T04:44:06;23.90;84.90
8485;DHT22;34555;49.34829940;8.43506100;2022-08-19T04:46:32;23.90;84.90
8485;DHT22;34555;49.34829940;8.43506100;2022-08-19T04:48:59;23.90;84.90
8485;DHT22;34555;49.34829940;8.43506100;2022-08-19T04:51:25;23.90;84.90
8485;DHT22;34555;49.34829940;8.43506100;2022-08-19T04:53:51;23.90;84.90
8485;DHT22;34555;49.34829940;8.43506100;2022-08-19T04:56:19;23.90;84.80
8485;DHT22;34555;49.34829940;8.43506100;2022-08-19T04:58:48;24.00;84.80
8485;DHT22;34555;49.34829940;8.43506100;2022-08-19T05:01:22;24.00;84.60
8485;DHT22;34555;49.34829940;8.43506100;2022-08-19T05:03:49;24.00;84.70
8485;DHT22;34555;49.34829940;8.43506100;2022-08-19T05:06:17;24.00;84.80
8485;DHT22;34555;49.34829940;8.43506100;2022-08-19T05:08:44;23.90;85.00
8485;DHT22;34555;49.34829940;8.43506100;2022-08-19T05:13:37;23.90;84.90
8485;DHT22;34555;49.34829940;8.43506100;2022-08-19T05:16:03;23.90;84.90
8485;DHT22;34555;49.34829940;8.43506100;2022-08-19T05:18:28;23.90;84.90
8485;DHT22;34555;49.34829940;8.43506100;2022-08-19T05:21:15;23.90;84.90
8485;DHT22;34555;49.34829940;8.43506100;2022-08-19T05:24:00;24.00;85.00
8485;DHT22;34555;49.34829940;8.43506100;2022-08-19T05:26:27;23.90;85.00
8485;DHT22;34555;49.34829940;8.43506100;2022-08-19T05:28:53;24.00;85.10
8485;DHT22;34555;49.34829940;8.43506100;2022-08-19T05:31:19;24.00;85.00
8485;DHT22;34555;49.34829940;8.43506100;2022-08-19T05:33:45;23.90;85.60
8485;DHT22;34555;49.34829940;8.43506100;2022-08-19T05:36:11;23.90;85.80
8485;DHT22;34555;49.34829940;8.43506100;2022-08-19T05:38:37;23.90;85.80
8485;DHT22;34555;49.34829940;8.43506100;2022-08-19T05:41:11;23.90;85.40
8485;DHT22;34555;49.34829940;8.43506100;2022-08-19T05:43:37;23.90;85.80
8485;DHT22;34555;49.34829940;8.43506100;2022-08-19T05:46:07;23.90;85.80
8485;DHT22;34555;49.34829940;8.43506100;2022-08-19T05:48:33;23.90;85.80
8485;DHT22;34555;49.34829940;8.43506100;2022-08-19T05:51:04;23.90;85.80
8485;DHT22;34555;49.34829940;8.43506100;2022-08-19T05:53:30;23.90;85.90
8485;DHT22;34555;49.34829940;8.43506100;2022-08-19T05:55:55;23.90;85.80
8485;DHT22;34555;49.34829940;8.43506100;2022-08-19T05:58:21;23.90;85.80
8485;DHT22;34555;49.34829940;8.43506100;2022-08-19T06:00:46;24.00;85.90
8485;DHT22;34555;49.34829940;8.43506100;2022-08-19T06:03:12;23.90;85.80
8485;DHT22;34555;49.34829940;8.43506100;2022-08-19T06:05:37;23.90;85.80
8485;DHT22;34555;49.34829940;8.43506100;2022-08-19T06:08:03;23.90;85.80
8485;DHT22;34555;49.34829940;8.43506100;2022-08-19T06:10:29;23.90;85.90
8485;DHT22;34555;49.34829940;8.43506100;2022-08-19T06:12:55;23.80;85.90
8485;DHT22;34555;49.34829940;8.43506100;2022-08-19T06:15:21;23.80;86.00
8485;DHT22;34555;49.34829940;8.43506100;2022-08-19T06:17:51;23.80;85.90
8485;DHT22;34555;49.34829940;8.43506100;2022-08-19T06:20:17;23.90;85.90
8485;DHT22;34555;49.34829940;8.43506100;2022-08-19T06:22:46;23.90;86.00
8485;DHT22;34555;49.34829940;8.43506100;2022-08-19T06:25:14;23.90;85.90
8485;DHT22;34555;49.34829940;8.43506100;2022-08-19T06:27:40;23.80;86.00
8485;DHT22;34555;49.34829940;8.43506100;2022-08-19T06:30:06;23.90;86.10
8485;DHT22;34555;49.34829940;8.43506100;2022-08-19T06:32:32;23.90;86.20
8485;DHT22;34555;49.34829940;8.43506100;2022-08-19T06:34:58;23.80;86.20
8485;DHT22;34555;49.34829940;8.43506100;2022-08-19T06:37:23;23.80;86.10
8485;DHT22;34555;49.34829940;8.43506100;2022-08-19T06:39:49;23.80;86.40
8485;DHT22;34555;49.34829940;8.43506100;2022-08-19T06:42:15;23.70;86.50
8485;DHT22;34555;49.34829940;8.43506100;2022-08-19T06:44:45;23.80;86.30
8485;DHT22;34555;49.34829940;8.43506100;2022-08-19T06:47:14;23.90;86.10
8485;DHT22;34555;49.34829940;8.43506100;2022-08-19T06:49:39;23.90;85.80
8485;DHT22;34555;49.34829940;8.43506100;2022-08-19T06:52:05;23.90;86.20
8485;DHT22;34555;49.34829940;8.43506100;2022-08-19T06:54:31;23.90;86.50
8485;DHT22;34555;49.34829940;8.43506100;2022-08-19T06:56:58;23.90;86.40
8485;DHT22;34555;49.34829940;8.43506100;2022-08-19T06:59:27;23.90;86.40
8485;DHT22;34555;49.34829940;8.43506100;2022-08-19T07:01:55;23.90;86.80
8485;DHT22;34555;49.34829940;8.43506100;2022-08-19T07:04:29;23.90;86.70
8485;DHT22;34555;49.34829940;8.43506100;2022-08-19T07:06:58;23.80;87.00
8485;DHT22;34555;49.34829940;8.43506100;2022-08-19T07:09:24;23.90;87.20
8485;DHT22;34555;49.34829940;8.43506100;2022-08-19T07:11:51;23.90;87.10
8485;DHT22;34555;49.34829940;8.43506100;2022-08-19T07:14:24;23.90;87.20
8485;DHT22;34555;49.34829940;8.43506100;2022-08-19T07:16:51;23.80;87.40
8485;DHT22;34555;49.34829940;8.43506100;2022-08-19T07:19:18;23.90;87.40
8485;DHT22;34555;49.34829940;8.43506100;2022-08-19T07:21:49;23.90;87.40
8485;DHT22;34555;49.34829940;8.43506100;2022-08-19T07:24:15;24.00;87.30
8485;DHT22;34555;49.34829940;8.43506100;2022-08-19T07:26:42;24.00;87.10
8485;DHT22;34555;49.34829940;8.43506100;2022-08-19T07:29:09;24.00;87.80
8485;DHT22;34555;49.34829940;8.43506100;2022-08-19T07:31:34;23.80;88.70
8485;DHT22;34555;49.34829940;8.43506100;2022-08-19T07:34:03;23.70;89.30
8485;DHT22;34555;49.34829940;8.43506100;2022-08-19T07:36:33;23.70;89.40
8485;DHT22;34555;49.34829940;8.43506100;2022-08-19T07:39:01;23.80;89.60
8485;DHT22;34555;49.34829940;8.43506100;2022-08-19T07:41:28;23.70;89.40
8485;DHT22;34555;49.34829940;8.43506100;2022-08-19T07:43:58;23.70;89.60
8485;DHT22;34555;49.34829940;8.43506100;2022-08-19T07:46:31;23.70;90.00
8485;DHT22;34555;49.34829940;8.43506100;2022-08-19T07:48:57;23.70;90.20
8485;DHT22;34555;49.34829940;8.43506100;2022-08-19T07:51:23;23.70;90.40
8485;DHT22;34555;49.34829940;8.43506100;2022-08-19T07:53:49;23.70;90.30
8485;DHT22;34555;49.34829940;8.43506100;2022-08-19T07:56:17;23.80;90.40
8485;DHT22;34555;49.34829940;8.43506100;2022-08-19T07:58:45;23.90;90.20
8485;DHT22;34555;49.34829940;8.43506100;2022-08-19T08:01:13;23.90;90.20
8485;DHT22;34555;49.34829940;8.43506100;2022-08-19T08:03:39;23.90;90.20
8485;DHT22;34555;49.34829940;8.43506100;2022-08-19T08:06:24;23.90;90.20
8485;DHT22;34555;49.34829940;8.43506100;2022-08-19T08:09:09;23.90;90.10
8485;DHT22;34555;49.34829940;8.43506100;2022-08-19T08:11:44;23.90;89.80
8485;DHT22;34555;49.34829940;8.43506100;2022-08-19T08:14:16;24.00;89.80
8485;DHT22;34555;49.34829940;8.43506100;2022-08-19T08:16:41;24.10;89.60
8485;DHT22;34555;49.34829940;8.43506100;2022-08-19T08:19:09;24.30;90.40
8485;DHT22;34555;49.34829940;8.43506100;2022-08-19T08:21:36;24.50;90.00
8485;DHT22;34555;49.34829940;8.43506100;2022-08-19T08:24:01;24.60;88.90
8485;DHT22;34555;49.34829940;8.43506100;2022-08-19T08:26:27;24.70;88.10
8485;DHT22;34555;49.34829940;8.43506100;2022-08-19T08:28:53;24.70;88.10
8485;DHT22;34555;49.34829940;8.43506100;2022-08-19T08:31:19;24.70;87.50
8485;DHT22;34555;49.34829940;8.43506100;2022-08-19T08:33:45;24.80;87.60
8485;DHT22;34555;49.34829940;8.43506100;2022-08-19T08:36:12;24.80;87.70
8485;DHT22;34555;49.34829940;8.43506100;2022-08-19T08:38:40;24.80;87.70
8485;DHT22;34555;49.34829940;8.43506100;2022-08-19T08:43:55;24.70;87.30
8485;DHT22;34555;49.34829940;8.43506100;2022-08-19T08:49:20;24.80;87.10
8485;DHT22;34555;49.34829940;8.43506100;2022-08-19T08:52:07;24.80;86.80
8485;DHT22;34555;49.34829940;8.43506100;2022-08-19T08:54:40;24.80;86.70
8485;DHT22;34555;49.34829940;8.43506100;2022-08-19T08:57:18;24.90;86.20
8485;DHT22;34555;49.34829940;8.43506100;2022-08-19T08:59:47;24.90;85.90
8485;DHT22;34555;49.34829940;8.43506100;2022-08-19T09:02:16;24.90;85.40
8485;DHT22;34555;49.34829940;8.43506100;2022-08-19T09:04:42;24.90;84.90
8485;DHT22;34555;49.34829940;8.43506100;2022-08-19T09:07:30;25.00;84.70
8485;DHT22;34555;49.34829940;8.43506100;2022-08-19T09:13:14;25.00;83.80
8485;DHT22;34555;49.34829940;8.43506100;2022-08-19T09:15:51;25.00;83.80
8485;DHT22;34555;49.34829940;8.43506100;2022-08-19T09:18:17;25.10;83.30
8485;DHT22;34555;49.34829940;8.43506100;2022-08-19T09:20:43;25.10;83.30
8485;DHT22;34555;49.34829940;8.43506100;2022-08-19T09:23:09;25.10;82.80
8485;DHT22;34555;49.34829940;8.43506100;2022-08-19T09:25:36;25.20;82.50
8485;DHT22;34555;49.34829940;8.43506100;2022-08-19T09:28:02;25.20;82.20
8485;DHT22;34555;49.34829940;8.43506100;2022-08-19T09:30:30;25.20;82.50
8485;DHT22;34555;49.34829940;8.43506100;2022-08-19T09:32:56;25.30;82.40
8485;DHT22;34555;49.34829940;8.43506100;2022-08-19T09:35:23;25.30;82.70
8485;DHT22;34555;49.34829940;8.43506100;2022-08-19T09:37:50;25.30;82.20
8485;DHT22;34555;49.34829940;8.43506100;2022-08-19T09:40:17;25.20;81.90
8485;DHT22;34555;49.34829940;8.43506100;2022-08-19T09:42:44;25.20;81.70
8485;DHT22;34555;49.34829940;8.43506100;2022-08-19T09:45:13;25.30;81.50
8485;DHT22;34555;49.34829940;8.43506100;2022-08-19T09:47:39;25.30;81.20
8485;DHT22;34555;49.34829940;8.43506100;2022-08-19T09:50:06;25.30;81.00
8485;DHT22;34555;49.34829940;8.43506100;2022-08-19T09:52:33;25.30;80.90
8485;DHT22;34555;49.34829940;8.43506100;2022-08-19T09:54:59;25.30;80.70
8485;DHT22;34555;49.34829940;8.43506100;2022-08-19T09:57:25;25.30;80.70
8485;DHT22;34555;49.34829940;8.43506100;2022-08-19T09:59:50;25.30;80.60
8485;DHT22;34555;49.34829940;8.43506100;2022-08-19T10:02:16;25.30;80.60
8485;DHT22;34555;49.34829940;8.43506100;2022-08-19T10:04:41;25.30;80.30
8485;DHT22;34555;49.34829940;8.43506100;2022-08-19T10:07:25;25.30;80.30
8485;DHT22;34555;49.34829940;8.43506100;2022-08-19T10:09:51;25.30;80.50
8485;DHT22;34555;49.34829940;8.43506100;2022-08-19T10:12:16;25.30;80.60
8485;DHT22;34555;49.34829940;8.43506100;2022-08-19T10:14:42;25.30;80.50
8485;DHT22;34555;49.34829940;8.43506100;2022-08-19T10:17:08;25.30;80.50
8485;DHT22;34555;49.34829940;8.43506100;2022-08-19T10:19:33;25.30;79.80
8485;DHT22;34555;49.34829940;8.43506100;2022-08-19T10:22:05;25.30;79.70
8485;DHT22;34555;49.34829940;8.43506100;2022-08-19T10:24:32;25.30;79.70
8485;DHT22;34555;49.34829940;8.43506100;2022-08-19T10:27:00;25.20;79.60
8485;DHT22;34555;49.34829940;8.43506100;2022-08-19T10:29:27;25.20;79.30
8485;DHT22;34555;49.34829940;8.43506100;2022-08-19T10:31:53;25.20;79.10
8485;DHT22;34555;49.34829940;8.43506100;2022-08-19T10:34:19;25.20;79.10
8485;DHT22;34555;49.34829940;8.43506100;2022-08-19T10:36:45;25.20;78.70
8485;DHT22;34555;49.34829940;8.43506100;2022-08-19T10:39:10;25.30;78.90
8485;DHT22;34555;49.34829940;8.43506100;2022-08-19T10:41:39;25.30;78.10
8485;DHT22;34555;49.34829940;8.43506100;2022-08-19T10:44:07;25.20;78.20
8485;DHT22;34555;49.34829940;8.43506100;2022-08-19T10:46:36;25.20;78.00
8485;DHT22;34555;49.34829940;8.43506100;2022-08-19T10:49:03;25.30;77.60
8485;DHT22;34555;49.34829940;8.43506100;2022-08-19T10:51:30;25.30;76.90
8485;DHT22;34555;49.34829940;8.43506100;2022-08-19T10:54:15;25.30;75.80
8485;DHT22;34555;49.34829940;8.43506100;2022-08-19T10:56:41;25.40;76.40
8485;DHT22;34555;49.34829940;8.43506100;2022-08-19T10:59:19;25.30;76.60
8485;DHT22;34555;49.34829940;8.43506100;2022-08-19T11:01:46;25.30;77.20
8485;DHT22;34555;49.34829940;8.43506100;2022-08-19T11:04:13;25.30;76.30
8485;DHT22;34555;49.34829940;8.43506100;2022-08-19T11:06:40;25.30;75.90
8485;DHT22;34555;49.34829940;8.43506100;2022-08-19T11:09:07;25.40;75.60
8485;DHT22;34555;49.34829940;8.43506100;2022-08-19T11:11:33;25.40;75.40
8485;DHT22;34555;49.34829940;8.43506100;2022-08-19T11:14:09;25.40;75.40
8485;DHT22;34555;49.34829940;8.43506100;2022-08-19T11:16:35;25.40;74.70
8485;DHT22;34555;49.34829940;8.43506100;2022-08-19T11:19:02;25.40;74.50
8485;DHT22;34555;49.34829940;8.43506100;2022-08-19T11:21:32;25.40;74.90
8485;DHT22;34555;49.34829940;8.43506100;2022-08-19T11:24:02;25.50;75.10
8485;DHT22;34555;49.34829940;8.43506100;2022-08-19T11:26:29;25.40;75.40
8485;DHT22;34555;49.34829940;8.43506100;2022-08-19T11:28:56;25.40;75.60
8485;DHT22;34555;49.34829940;8.43506100;2022-08-19T11:31:25;25.40;75.60
8485;DHT22;34555;49.34829940;8.43506100;2022-08-19T11:33:51;25.40;75.60
8485;DHT22;34555;49.34829940;8.43506100;2022-08-19T11:36:19;25.40;75.70
8485;DHT22;34555;49.34829940;8.43506100;2022-08-19T11:38:47;25.50;75.80
8485;DHT22;34555;49.34829940;8.43506100;2022-08-19T11:41:15;25.40;75.70
8485;DHT22;34555;49.34829940;8.43506100;2022-08-19T11:43:41;25.50;75.80
8485;DHT22;34555;49.34829940;8.43506100;2022-08-19T11:46:08;25.40;75.80
8485;DHT22;34555;49.34829940;8.43506100;2022-08-19T11:48:35;25.40;75.70
8485;DHT22;34555;49.34829940;8.43506100;2022-08-19T11:51:05;25.40;75.70
8485;DHT22;34555;49.34829940;8.43506100;2022-08-19T11:53:35;25.40;75.40
8485;DHT22;34555;49.34829940;8.43506100;2022-08-19T11:56:02;25.40;75.40
8485;DHT22;34555;49.34829940;8.43506100;2022-08-19T11:58:27;25.40;75.20
8485;DHT22;34555;49.34829940;8.43506100;2022-08-19T12:00:54;25.50;75.20
8485;DHT22;34555;49.34829940;8.43506100;2022-08-19T12:03:20;25.50;75.10
8485;DHT22;34555;49.34829940;8.43506100;2022-08-19T12:05:46;25.50;75.00
8485;DHT22;34555;49.34829940;8.43506100;2022-08-19T12:08:12;25.50;74.90
8485;DHT22;34555;49.34829940;8.43506100;2022-08-19T12:10:41;25.50;74.80
8485;DHT22;34555;49.34829940;8.43506100;2022-08-19T12:13:08;25.50;74.90
8485;DHT22;34555;49.34829940;8.43506100;2022-08-19T12:15:38;25.50;74.90
8485;DHT22;34555;49.34829940;8.43506100;2022-08-19T12:18:06;25.50;74.80
8485;DHT22;34555;49.34829940;8.43506100;2022-08-19T12:20:35;25.50;74.80
8485;DHT22;34555;49.34829940;8.43506100;2022-08-19T12:23:00;25.50;74.80
8485;DHT22;34555;49.34829940;8.43506100;2022-08-19T12:25:26;25.50;74.80
8485;DHT22;34555;49.34829940;8.43506100;2022-08-19T12:27:51;25.50;74.60
8485;DHT22;34555;49.34829940;8.43506100;2022-08-19T12:30:17;25.60;74.70
8485;DHT22;34555;49.34829940;8.43506100;2022-08-19T12:32:42;25.60;74.50
8485;DHT22;34555;49.34829940;8.43506100;2022-08-19T12:35:09;25.60;74.30
8485;DHT22;34555;49.34829940;8.43506100;2022-08-19T12:37:35;25.60;74.30
8485;DHT22;34555;49.34829940;8.43506100;2022-08-19T12:40:01;25.60;74.00
8485;DHT22;34555;49.34829940;8.43506100;2022-08-19T12:42:28;25.60;73.70
8485;DHT22;34555;49.34829940;8.43506100;2022-08-19T12:44:55;25.70;73.60
8485;DHT22;34555;49.34829940;8.43506100;2022-08-19T12:47:21;25.60;73.20
8485;DHT22;34555;49.34829940;8.43506100;2022-08-19T12:49:47;25.70;73.20
8485;DHT22;34555;49.34829940;8.43506100;2022-08-19T12:52:13;25.70;73.60
8485;DHT22;34555;49.34829940;8.43506100;2022-08-19T12:54:42;25.70;73.80
8485;DHT22;34555;49.34829940;8.43506100;2022-08-19T12:57:09;25.60;73.60
8485;DHT22;34555;49.34829940;8.43506100;2022-08-19T12:59:36;25.60;73.50
8485;DHT22;34555;49.34829940;8.43506100;2022-08-19T13:02:04;25.70;73.20
8485;DHT22;34555;49.34829940;8.43506100;2022-08-19T13:04:32;25.70;73.20
8485;DHT22;34555;49.34829940;8.43506100;2022-08-19T13:06:58;25.70;73.10
8485;DHT22;34555;49.34829940;8.43506100;2022-08-19T13:09:23;25.70;72.80
8485;DHT22;34555;49.34829940;8.43506100;2022-08-19T13:11:49;25.70;73.40
8485;DHT22;34555;49.34829940;8.43506100;2022-08-19T13:14:15;25.70;72.50
8485;DHT22;34555;49.34829940;8.43506100;2022-08-19T13:16:40;25.70;72.60
8485;DHT22;34555;49.34829940;8.43506100;2022-08-19T13:19:06;25.70;72.50
8485;DHT22;34555;49.34829940;8.43506100;2022-08-19T13:21:32;25.70;72.70
8485;DHT22;34555;49.34829940;8.43506100;2022-08-19T13:23:58;25.70;72.40
8485;DHT22;34555;49.34829940;8.43506100;2022-08-19T13:26:23;25.80;72.50
8485;DHT22;34555;49.34829940;8.43506100;2022-08-19T13:28:49;25.80;72.40
8485;DHT22;34555;49.34829940;8.43506100;2022-08-19T13:31:35;25.70;72.10
8485;DHT22;34555;49.34829940;8.43506100;2022-08-19T13:34:32;25.80;71.90
8485;DHT22;34555;49.34829940;8.43506100;2022-08-19T13:36:59;25.80;72.10
8485;DHT22;34555;49.34829940;8.43506100;2022-08-19T13:39:28;25.80;72.40
8485;DHT22;34555;49.34829940;8.43506100;2022-08-19T13:41:54;25.80;72.00
8485;DHT22;34555;49.34829940;8.43506100;2022-08-19T13:44:19;25.80;72.10
8485;DHT22;34555;49.34829940;8.43506100;2022-08-19T13:46:47;25.80;72.30
8485;DHT22;34555;49.34829940;8.43506100;2022-08-19T13:49:14;25.80;72.30
8485;DHT22;34555;49.34829940;8.43506100;2022-08-19T13:51:40;25.90;72.30